createdAt,value
2023-04-21T00:00:46.953Z,6.74
2023-04-21T00:03:47.981Z,6.75
2023-04-21T00:06:47.888Z,6.73
2023-04-21T00:09:40.875Z,6.72
2023-04-21T00:12:20.111Z,6.72
2023-04-21T00:15:05.904Z,6.72
2023-04-21T00:17:52.995Z,6.72
2023-04-21T00:20:52.887Z,6.75
2023-04-21T00:23:52.897Z,6.75
2023-04-21T00:26:52.892Z,6.76
2023-04-21T00:29:52.939Z,6.76
2023-04-21T00:32:53.933Z,6.78
2023-04-21T00:35:56.954Z,6.78
2023-04-21T00:38:56.951Z,6.77
2023-04-21T00:45:05.056Z,6.69
2023-04-21T00:47:51.028Z,6.66
2023-04-21T00:50:51.946Z,6.65
2023-04-21T00:53:45.976Z,6.64
2023-04-21T00:56:46.952Z,6.64
2023-04-21T00:59:46.950Z,6.66
2023-04-21T01:02:48.105Z,6.66
2023-04-21T01:05:48.999Z,6.67
2023-04-21T01:08:49.942Z,6.68
2023-04-21T01:11:51.020Z,6.68
2023-04-21T01:14:51.987Z,6.69
2023-04-21T01:17:52.008Z,6.69
2023-04-21T01:20:56.070Z,6.70
2023-04-21T01:23:55.996Z,6.70
2023-04-21T01:26:56.062Z,6.70
2023-04-21T01:29:57.017Z,6.70
2023-04-21T01:32:51.213Z,6.68
2023-04-21T01:35:53.040Z,6.66
2023-04-21T01:38:53.023Z,6.65
2023-04-21T01:41:54.027Z,6.64
2023-04-21T01:44:55.057Z,6.61
2023-04-21T01:47:56.184Z,6.61
2023-04-21T01:50:57.064Z,6.61
2023-04-21T01:53:57.075Z,6.62
2023-04-21T01:56:58.289Z,6.63
2023-04-21T01:59:58.082Z,6.64
2023-04-21T02:03:08.284Z,6.66
2023-04-21T02:06:08.132Z,6.69
2023-04-21T02:09:08.118Z,6.71
2023-04-21T02:12:11.120Z,6.73
2023-04-21T02:15:11.078Z,6.76
2023-04-21T02:18:12.171Z,6.79
2023-04-21T02:21:12.290Z,6.81
2023-04-21T02:24:12.154Z,6.83
2023-04-21T02:27:13.143Z,6.84
2023-04-21T02:30:13.085Z,6.86
2023-04-21T02:33:13.161Z,6.89
2023-04-21T02:36:15.198Z,6.89
2023-04-21T02:39:15.120Z,6.90
2023-04-21T02:42:15.125Z,6.91
2023-04-21T02:45:16.239Z,6.88
2023-04-21T02:48:17.141Z,6.86
2023-04-21T02:51:17.157Z,6.84
2023-04-21T02:54:17.173Z,6.82
2023-04-21T02:57:17.147Z,6.78
2023-04-21T03:00:18.196Z,6.76
2023-04-21T03:03:18.374Z,6.74
2023-04-21T03:06:18.449Z,6.69
2023-04-21T03:09:18.441Z,6.66
2023-04-21T03:12:19.200Z,6.62
2023-04-21T03:15:20.259Z,6.62
2023-04-21T03:18:20.264Z,6.64
2023-04-21T03:21:20.192Z,6.67
2023-04-21T03:24:20.203Z,6.70
2023-04-21T03:27:20.226Z,6.71
2023-04-21T03:30:20.240Z,6.73
2023-04-21T03:33:23.254Z,6.74
2023-04-21T03:36:23.223Z,6.73
2023-04-21T03:39:24.421Z,6.74
2023-04-21T03:42:24.245Z,6.74
2023-04-21T03:45:28.265Z,6.73
2023-04-21T03:48:28.270Z,6.75
2023-04-21T03:51:28.525Z,6.76
2023-04-21T03:54:28.262Z,6.77
2023-04-21T03:57:28.285Z,6.79
2023-04-21T04:00:28.297Z,6.84
2023-04-21T04:03:28.512Z,6.86
2023-04-21T04:06:29.323Z,6.92
2023-04-21T04:09:30.324Z,6.98
2023-04-21T04:12:31.288Z,7.03
2023-04-21T04:15:31.289Z,7.11
2023-04-21T04:18:31.318Z,7.20
2023-04-21T04:21:31.340Z,7.27
2023-04-21T04:24:32.317Z,7.34
2023-04-21T04:27:32.316Z,7.41
2023-04-21T04:30:34.385Z,7.47
2023-04-21T04:33:35.304Z,7.54
2023-04-21T04:36:42.362Z,7.66
2023-04-21T04:39:43.314Z,7.78
2023-04-21T04:42:43.395Z,7.89
2023-04-21T04:45:43.353Z,8.02
2023-04-21T04:48:43.627Z,8.19
2023-04-21T04:51:43.354Z,8.40
2023-04-21T04:54:43.353Z,8.65
2023-04-21T04:57:43.358Z,8.84
2023-04-21T05:00:43.361Z,8.94
2023-04-21T05:03:43.511Z,9.03
2023-04-21T05:06:43.406Z,9.08
2023-04-21T05:09:43.456Z,9.08
2023-04-21T05:12:43.685Z,9.07
2023-04-21T05:15:43.436Z,9.06
2023-04-21T05:18:43.395Z,9.11
2023-04-21T05:21:43.423Z,9.14
2023-04-21T05:24:43.385Z,9.21
2023-04-21T05:27:43.484Z,9.35
2023-04-21T05:30:44.427Z,9.48
2023-04-21T05:33:44.473Z,9.55
2023-04-21T05:36:45.465Z,9.53
2023-04-21T05:39:45.426Z,9.52
2023-04-21T05:42:46.435Z,9.57
2023-04-21T05:45:46.669Z,9.84
2023-04-21T05:48:46.574Z,10.47
2023-04-21T05:51:47.493Z,11.42
2023-04-21T05:54:47.539Z,12.43
2023-04-21T05:57:47.452Z,13.47
2023-04-21T06:00:49.249Z,14.42
2023-04-21T06:03:51.661Z,15.19
2023-04-21T06:06:51.520Z,15.60
2023-04-21T06:09:53.500Z,15.83
2023-04-21T06:12:54.540Z,16.21
2023-04-21T06:15:55.688Z,16.51
2023-04-21T06:18:55.534Z,16.64
2023-04-21T06:21:55.585Z,16.99
2023-04-21T06:24:55.628Z,17.06
2023-04-21T06:27:55.525Z,16.69
2023-04-21T06:30:55.526Z,16.10
2023-04-21T06:33:55.617Z,15.27
2023-04-21T06:36:56.602Z,14.69
2023-04-21T06:39:57.585Z,14.36
2023-04-21T06:42:59.596Z,14.17
2023-04-21T06:45:59.603Z,14.33
2023-04-21T06:48:59.643Z,14.49
2023-04-21T06:51:59.647Z,14.57
2023-04-21T06:54:59.580Z,14.79
2023-04-21T06:57:59.616Z,15.29
2023-04-21T07:00:59.743Z,16.06
2023-04-21T07:03:59.778Z,16.83
2023-04-21T07:07:02.401Z,17.49
2023-04-21T07:10:03.602Z,17.84
2023-04-21T07:13:03.672Z,17.66
2023-04-21T07:16:03.684Z,17.27
2023-04-21T07:19:03.695Z,16.89
2023-04-21T07:22:04.701Z,16.41
2023-04-21T07:25:04.710Z,15.85
2023-04-21T07:27:57.794Z,15.32
2023-04-21T07:30:57.786Z,14.90
2023-04-21T07:33:57.661Z,14.50
2023-04-21T07:37:00.695Z,14.11
2023-04-21T07:40:00.901Z,13.80
2023-04-21T07:43:00.737Z,13.55
2023-04-21T07:46:00.833Z,13.54
2023-04-21T07:49:02.780Z,13.94
2023-04-21T07:52:03.699Z,14.54
2023-04-21T07:55:03.801Z,14.74
2023-04-21T07:58:04.692Z,14.55
2023-04-21T08:01:05.719Z,14.36
2023-04-21T08:04:05.979Z,14.18
2023-04-21T08:07:07.833Z,14.03
2023-04-21T08:10:08.736Z,14.11
2023-04-21T08:13:13.726Z,14.79
2023-04-21T08:16:13.882Z,15.68
2023-04-21T08:19:13.789Z,16.21
2023-04-21T08:22:14.810Z,16.32
2023-04-21T08:25:15.789Z,16.15
2023-04-21T08:28:15.773Z,15.79
2023-04-21T08:31:15.828Z,15.41
2023-04-21T08:34:15.734Z,15.17
2023-04-21T08:37:15.785Z,15.07
2023-04-21T08:40:09.923Z,15.09
2023-04-21T08:43:09.792Z,15.01
2023-04-21T08:46:09.848Z,14.93
2023-04-21T08:49:09.837Z,14.83
2023-04-21T08:52:09.824Z,14.80
2023-04-21T08:55:10.870Z,14.77
2023-04-21T08:58:12.804Z,14.71
2023-04-21T09:01:12.885Z,14.73
2023-04-21T09:04:31.109Z,14.76
2023-04-21T09:07:57.945Z,14.79
2023-04-21T09:11:03.303Z,14.92
2023-04-21T09:14:04.826Z,15.06
2023-04-21T09:17:11.953Z,15.16
2023-04-21T09:20:20.963Z,15.12
2023-04-21T09:23:21.902Z,14.97
2023-04-21T09:26:21.920Z,14.76
2023-04-21T09:29:21.990Z,14.41
2023-04-21T09:32:25.891Z,14.09
2023-04-21T09:35:18.921Z,13.82
2023-04-21T09:38:03.953Z,13.69
2023-04-21T09:40:49.882Z,13.61
2023-04-21T09:43:35.900Z,13.58
2023-04-21T09:46:39.983Z,13.65
2023-04-21T09:49:39.928Z,13.69
2023-04-21T09:52:39.927Z,13.83
2023-04-21T09:55:40.943Z,14.30
2023-04-21T09:58:42.978Z,14.81
2023-04-21T10:01:45.121Z,15.31
2023-04-21T10:04:45.191Z,15.38
2023-04-21T10:07:45.946Z,15.08
2023-04-21T10:10:46.016Z,14.71
2023-04-21T10:13:46.989Z,14.26
2023-04-21T10:16:48.968Z,13.88
2023-04-21T10:19:48.906Z,13.60
2023-04-21T10:22:50.027Z,13.43
2023-04-21T10:25:50.946Z,13.36
2023-04-21T10:28:58.022Z,13.17
2023-04-21T10:31:57.990Z,12.91
2023-04-21T10:34:58.230Z,12.68
2023-04-21T10:38:01.226Z,12.66
2023-04-21T10:41:01.242Z,12.78
2023-04-21T10:44:05.009Z,13.29
2023-04-21T10:47:05.036Z,13.85
2023-04-21T10:50:05.993Z,14.33
2023-04-21T10:53:07.060Z,14.86
2023-04-21T10:56:08.101Z,15.04
2023-04-21T10:59:07.988Z,14.83
2023-04-21T11:02:08.185Z,14.52
2023-04-21T11:05:10.291Z,14.22
2023-04-21T11:08:20.138Z,14.15
2023-04-21T11:11:20.267Z,14.33
2023-04-21T11:14:21.299Z,14.53
2023-04-21T11:17:29.148Z,14.63
2023-04-21T11:20:29.084Z,14.67
2023-04-21T11:23:32.117Z,14.83
2023-04-21T11:26:33.154Z,14.89
2023-04-21T11:29:33.086Z,14.99
2023-04-21T11:32:33.157Z,15.13
2023-04-21T11:35:26.212Z,15.21
2023-04-21T11:38:22.116Z,15.33
2023-04-21T11:41:22.115Z,15.60
2023-04-21T11:44:22.099Z,16.00
2023-04-21T11:47:27.833Z,16.02
2023-04-21T11:50:32.145Z,15.83
2023-04-21T11:53:32.129Z,16.02
2023-04-21T11:56:33.113Z,15.99
2023-04-21T11:59:35.199Z,15.84
2023-04-21T12:02:36.250Z,15.91
2023-04-21T12:05:36.264Z,15.88
2023-04-21T12:08:36.128Z,15.72
2023-04-21T12:11:33.196Z,15.61
2023-04-21T12:14:19.166Z,15.63
2023-04-21T12:17:19.209Z,15.75
2023-04-21T12:20:20.172Z,15.92
2023-04-21T12:23:20.172Z,16.01
2023-04-21T12:26:20.195Z,15.95
2023-04-21T12:29:13.162Z,15.82
2023-04-21T12:31:59.481Z,15.66
2023-04-21T12:34:53.291Z,15.60
2023-04-21T12:37:54.219Z,15.57
2023-04-21T12:40:54.262Z,15.63
2023-04-21T12:43:54.246Z,15.75
2023-04-21T12:46:55.310Z,15.87
2023-04-21T12:49:55.250Z,15.80
2023-04-21T12:52:57.312Z,15.74
2023-04-21T12:56:04.801Z,15.84
2023-04-21T12:58:58.265Z,15.99
2023-04-21T13:01:38.454Z,16.03
2023-04-21T13:04:24.584Z,16.10
2023-04-21T13:07:04.420Z,16.15
2023-04-21T13:09:50.487Z,16.11
2023-04-21T13:12:30.453Z,16.11
2023-04-21T13:15:17.307Z,16.10
2023-04-21T13:17:57.453Z,16.08
2023-04-21T13:20:44.457Z,15.92
2023-04-21T13:23:44.344Z,15.75
2023-04-21T13:26:37.338Z,15.67
2023-04-21T13:29:16.528Z,15.68
2023-04-21T13:32:02.405Z,15.70
2023-04-21T13:34:41.495Z,15.55
2023-04-21T13:37:27.450Z,15.38
2023-04-21T13:40:27.336Z,15.26
2023-04-21T13:43:27.435Z,15.14
2023-04-21T13:46:27.316Z,15.14
2023-04-21T13:49:27.305Z,15.22
2023-04-21T13:52:27.336Z,15.27
2023-04-21T13:55:27.365Z,15.32
2023-04-21T13:58:27.439Z,15.40
2023-04-21T14:01:27.408Z,15.44
2023-04-21T14:04:27.519Z,15.47
2023-04-21T14:07:28.389Z,15.47
2023-04-21T14:10:28.503Z,15.48
2023-04-21T14:16:33.444Z,15.48
2023-04-21T14:19:26.412Z,15.46
2023-04-21T14:22:12.493Z,15.51
2023-04-21T14:25:12.412Z,15.51
2023-04-21T14:28:15.422Z,15.47
2023-04-21T14:31:15.542Z,15.46
2023-04-21T14:34:15.432Z,15.42
2023-04-21T14:37:08.446Z,15.31
2023-04-21T14:39:54.433Z,15.26
2023-04-21T14:42:55.602Z,15.15
2023-04-21T14:45:55.538Z,15.06
2023-04-21T14:48:55.534Z,15.01
2023-04-21T14:51:57.492Z,14.96
2023-04-21T14:54:58.562Z,14.90
2023-04-21T14:57:58.479Z,14.86
2023-04-21T15:00:58.523Z,14.82
2023-04-21T15:03:58.521Z,14.78
2023-04-21T15:06:58.543Z,14.67
2023-04-21T15:09:58.512Z,14.55
2023-04-21T15:12:59.536Z,14.43
2023-04-21T15:16:00.515Z,14.31
2023-04-21T15:19:01.914Z,14.20
2023-04-21T15:22:03.522Z,14.11
2023-04-21T15:25:03.510Z,14.01
2023-04-21T15:28:03.549Z,13.91
2023-04-21T15:31:03.601Z,13.84
2023-04-21T15:34:03.564Z,13.73
2023-04-21T15:37:03.511Z,13.66
2023-04-21T15:40:03.544Z,13.58
2023-04-21T15:43:03.618Z,13.50
2023-04-21T15:46:04.606Z,13.30
2023-04-21T15:49:04.633Z,13.05
2023-04-21T15:52:04.659Z,12.80
2023-04-21T15:55:05.669Z,12.48
2023-04-21T15:58:05.580Z,12.19
2023-04-21T16:01:05.706Z,12.04
2023-04-21T16:04:05.799Z,11.96
2023-04-21T16:07:05.792Z,11.94
2023-04-21T16:10:05.648Z,11.95
2023-04-21T16:13:05.567Z,11.99
2023-04-21T16:16:05.678Z,12.01
2023-04-21T16:19:05.597Z,12.00
2023-04-21T16:22:07.374Z,11.96
2023-04-21T16:25:07.827Z,11.86
2023-04-21T16:28:07.710Z,11.83
2023-04-21T16:31:07.656Z,11.82
2023-04-21T16:34:07.722Z,11.81
2023-04-21T16:37:07.706Z,11.80
2023-04-21T16:40:07.715Z,11.75
2023-04-21T16:43:07.791Z,11.68
2023-04-21T16:46:07.743Z,11.63
2023-04-21T16:49:09.785Z,11.52
2023-04-21T16:52:13.736Z,11.39
2023-04-21T16:55:13.658Z,11.33
2023-04-21T16:58:13.704Z,11.29
2023-04-21T17:01:13.733Z,11.24
2023-04-21T17:04:13.898Z,11.16
2023-04-21T17:07:13.767Z,11.06
2023-04-21T17:10:13.700Z,10.96
2023-04-21T17:13:13.702Z,10.84
2023-04-21T17:16:16.980Z,10.77
2023-04-21T17:19:16.676Z,10.70
2023-04-21T17:22:16.688Z,10.65
2023-04-21T17:25:19.850Z,10.62
2023-04-21T17:28:22.083Z,10.60
2023-04-21T17:31:21.766Z,10.56
2023-04-21T17:34:21.851Z,10.52
2023-04-21T17:37:23.955Z,10.48
2023-04-21T17:40:23.747Z,10.43
2023-04-21T17:43:23.862Z,10.40
2023-04-21T17:46:25.591Z,10.40
2023-04-21T17:49:28.747Z,10.37
2023-04-21T17:52:30.004Z,10.34
2023-04-21T17:55:29.776Z,10.30
2023-04-21T17:58:30.786Z,10.27
2023-04-21T18:01:30.824Z,10.24
2023-04-21T18:04:31.153Z,10.20
2023-04-21T18:07:30.956Z,10.17
2023-04-21T18:10:30.830Z,10.12
2023-04-21T18:13:30.801Z,10.07
2023-04-21T18:16:32.024Z,10.06
2023-04-21T18:19:31.876Z,10.05
2023-04-21T18:22:31.841Z,10.05
2023-04-21T18:25:42.214Z,10.04
2023-04-21T18:28:42.823Z,10.01
2023-04-21T18:31:42.877Z,10.00
2023-04-21T18:34:42.869Z,9.98
2023-04-21T18:37:42.861Z,9.99
2023-04-21T18:40:42.861Z,9.99
2023-04-21T18:43:42.847Z,9.99
2023-04-21T18:46:42.859Z,10.01
2023-04-21T18:49:42.857Z,10.03
2023-04-21T18:52:42.839Z,10.06
2023-04-21T18:55:45.923Z,10.09
2023-04-21T18:58:45.909Z,10.10
2023-04-21T19:01:48.084Z,10.11
2023-04-21T19:04:49.847Z,10.12
2023-04-21T19:07:50.916Z,10.12
2023-04-21T19:10:59.939Z,10.11
2023-04-21T19:13:59.901Z,10.10
2023-04-21T19:17:00.120Z,10.10
2023-04-21T19:19:59.938Z,10.09
2023-04-21T19:22:59.963Z,10.08
2023-04-21T19:26:01.956Z,10.09
2023-04-21T19:29:01.951Z,10.10
2023-04-21T19:32:01.977Z,10.10
2023-04-21T19:35:03.022Z,10.10
2023-04-21T19:38:03.958Z,10.08
2023-04-21T19:41:04.074Z,10.08
2023-04-21T19:44:03.957Z,10.08
2023-04-21T19:47:03.986Z,10.08
2023-04-21T19:50:04.013Z,10.09
2023-04-21T19:53:04.195Z,10.09
2023-04-21T19:56:04.040Z,10.09
2023-04-21T19:59:04.061Z,10.08
2023-04-21T20:02:05.144Z,10.07
2023-04-21T20:05:05.200Z,10.06
2023-04-21T20:08:06.014Z,10.06
2023-04-21T20:11:11.017Z,10.05
2023-04-21T20:14:04.215Z,10.05
2023-04-21T20:17:04.026Z,10.05
2023-04-21T20:20:05.004Z,10.04
2023-04-21T20:23:05.051Z,10.02
2023-04-21T20:26:05.074Z,10.00
2023-04-21T20:29:05.110Z,10.00
2023-04-21T20:32:05.082Z,10.00
2023-04-21T20:35:05.572Z,10.00
2023-04-21T20:38:08.032Z,9.99
2023-04-21T20:41:08.081Z,10.00
2023-04-21T20:44:10.046Z,9.99
2023-04-21T20:47:20.372Z,9.98
2023-04-21T20:50:23.143Z,9.98
2023-04-21T20:53:23.083Z,9.96
2023-04-21T20:56:16.133Z,9.95
2023-04-21T20:58:58.434Z,9.94
2023-04-21T21:01:46.194Z,9.91
2023-04-21T21:04:46.100Z,9.86
2023-04-21T21:07:46.323Z,9.83
2023-04-21T21:10:46.068Z,9.79
2023-04-21T21:13:47.132Z,9.75
2023-04-21T21:16:47.080Z,9.71
2023-04-21T21:19:47.163Z,9.67
2023-04-21T21:23:12.061Z,9.64
2023-04-21T21:26:04.240Z,9.62
2023-04-21T21:28:50.180Z,9.61
2023-04-21T21:31:50.248Z,9.61
2023-04-21T21:34:58.307Z,9.59
2023-04-21T21:38:32.234Z,9.58
2023-04-21T21:41:37.078Z,9.55
2023-04-21T21:44:30.825Z,9.52
2023-04-21T21:47:25.295Z,9.47
2023-04-21T21:50:25.156Z,9.42
2023-04-21T21:53:25.711Z,9.38
2023-04-21T21:56:26.198Z,9.32
2023-04-21T21:59:26.195Z,9.26
2023-04-21T22:02:26.296Z,9.22
2023-04-21T22:05:26.312Z,9.19
2023-04-21T22:08:27.426Z,9.14
2023-04-21T22:11:27.225Z,9.08
2023-04-21T22:14:27.209Z,9.01
2023-04-21T22:17:27.329Z,8.96
2023-04-21T22:20:28.226Z,8.94
2023-04-21T22:23:28.296Z,8.90
2023-04-21T22:26:28.211Z,8.86
2023-04-21T22:29:28.497Z,8.82
2023-04-21T22:32:28.242Z,8.78
2023-04-21T22:35:28.252Z,8.75
2023-04-21T22:38:28.225Z,8.72
2023-04-21T22:41:28.245Z,8.70
2023-04-21T22:44:28.303Z,8.66
2023-04-21T22:47:28.290Z,8.63
2023-04-21T22:50:28.348Z,8.61
2023-04-21T22:53:28.278Z,8.60
2023-04-21T22:56:28.393Z,8.62
2023-04-21T22:59:28.302Z,8.60
2023-04-21T23:02:28.392Z,8.56
2023-04-21T23:05:28.586Z,8.49
2023-04-21T23:08:21.305Z,8.42
2023-04-21T23:11:07.316Z,8.35
2023-04-21T23:14:07.308Z,8.29
2023-04-21T23:17:07.315Z,8.23
2023-04-21T23:20:08.324Z,8.16
2023-04-21T23:23:08.360Z,8.10
2023-04-21T23:26:08.308Z,8.06
2023-04-21T23:29:08.383Z,8.01
2023-04-21T23:32:08.454Z,7.95
2023-04-21T23:35:08.373Z,7.90
2023-04-21T23:38:11.339Z,7.85
2023-04-21T23:41:11.422Z,7.82
2023-04-21T23:44:11.347Z,7.80
2023-04-21T23:47:11.377Z,7.77
2023-04-21T23:50:11.371Z,7.73
2023-04-21T23:53:11.355Z,7.68
2023-04-21T23:56:11.472Z,7.62
2023-04-21T23:59:12.390Z,7.57
